Time;durP1;ratioP1;P1;durP2;ratioP2;P2;SDS_P1;SDS_P2;PMS_P1;PMS_P2;Temp;Humidity;BMP_temperature;BMP_pressure;BME280_temperature;BME280_humidity;BME280_pressure;Samples;Min_cycle;Max_cycle;Signal;HPM_P1;HPM_P2
2021/04/06 00:01:48;;;;;;;20.12;12.28;;;;;;;4.24;61.91;97646.65;1813012;79;21178;-64
2021/04/06 00:04:26;;;;;;;24.57;12.82;;;;;;;4.21;62.03;97644.48;1813015;79;21282;-64
2021/04/06 00:06:59;;;;;;;22.45;13.20;;;;;;;4.17;62.18;97647.39;1813039;79;21142;-63
2021/04/06 00:09:31;;;;;;;21.93;12.13;;;;;;;4.16;62.40;97634.62;1813073;78;21107;-63
2021/04/06 00:12:01;;;;;;;;;;;;;;;4.13;62.48;97645.22;1815378;79;21147;-63
2021/04/06 00:14:31;;;;;;;22.45;12.58;;;;;;;4.09;62.84;97643.44;1828256;78;20155;-63
2021/04/06 00:17:01;;;;;;;21.55;12.78;;;;;;;4.07;62.95;97641.31;1812694;79;21135;-65
2021/04/06 00:19:34;;;;;;;24.63;13.08;;;;;;;4.05;63.11;97642.97;1812681;78;21159;-61
2021/04/06 00:22:04;;;;;;;24.05;12.03;;;;;;;4.02;63.27;97644.21;1812912;78;21123;-63
2021/04/06 00:24:36;;;;;;;26.48;13.80;;;;;;;4.01;63.47;97623.33;1812616;78;21134;-64
2021/04/06 00:27:13;;;;;;;21.75;12.18;;;;;;;4.00;63.53;97632.26;1812955;78;21272;-64
2021/04/06 00:29:45;;;;;;;21.17;12.68;;;;;;;3.98;63.67;97622.44;1812761;78;21154;-63
2021/04/06 00:32:16;;;;;;;25.52;12.65;;;;;;;3.95;63.87;97616.88;1812998;78;21261;-63
2021/04/06 00:34:44;;;;;;;26.02;14.45;;;;;;;3.92;64.02;97621.94;1801656;79;21147;-63
2021/04/06 00:37:17;;;;;;;25.68;14.07;;;;;;;3.87;64.17;97617.17;1812806;78;21159;-62
2021/04/06 00:39:46;;;;;;;21.82;14.30;;;;;;;3.86;64.36;97623.09;1812802;78;21147;-62
2021/04/06 00:42:20;;;;;;;26.52;13.58;;;;;;;3.84;64.54;97612.88;1812696;78;21123;-62
2021/04/06 00:44:52;;;;;;;22.90;12.40;;;;;;;3.85;64.61;97617.56;1812938;78;21554;-61
2021/04/06 00:47:26;;;;;;;28.60;13.98;;;;;;;3.83;64.66;97623.05;1811738;78;21099;-65
2021/04/06 00:49:57;;;;;;;25.35;13.88;;;;;;;3.82;64.85;97604.77;1794308;79;21329;-63
2021/04/06 00:52:28;;;;;;;24.65;13.75;;;;;;;3.80;64.80;97615.36;1778526;80;21237;-64
2021/04/06 00:54:56;;;;;;;28.27;15.60;;;;;;;3.81;64.81;97610.68;1779608;79;21350;-63
2021/04/06 00:57:32;;;;;;;22.42;13.88;;;;;;;3.79;64.87;97610.67;1779617;79;21233;-63
2021/04/06 01:00:19;;;;;;;22.32;14.40;;;;;;;3.78;64.95;97611.91;1779428;79;21214;-64
2021/04/06 01:03:10;;;;;;;25.12;13.50;;;;;;;3.76;65.08;97603.38;1779817;80;21661;-62
2021/04/06 01:06:02;;;;;;;;;;;;;;;3.74;65.21;97613.57;1773087;80;21182;-63
2021/04/06 01:08:33;;;;;;;21.95;14.10;;;;;;;3.73;65.30;97619.91;1781233;80;20225;-63
2021/04/06 01:11:02;;;;;;;26.52;15.08;;;;;;;3.72;65.41;97622.03;1780963;80;21289;-63
2021/04/06 01:13:33;;;;;;;27.37;14.28;;;;;;;3.71;65.48;97616.05;1780769;80;21139;-63
2021/04/06 01:16:04;;;;;;;28.32;15.32;;;;;;;3.67;65.61;97624.08;1780968;79;21321;-62
2021/04/06 01:18:32;;;;;;;24.05;14.25;;;;;;;3.63;65.80;97614.65;1781068;80;21135;-63
2021/04/06 01:21:07;;;;;;;22.35;13.10;;;;;;;3.60;66.02;97610.78;1780866;80;21292;-63
2021/04/06 01:23:36;;;;;;;24.70;14.13;;;;;;;3.57;66.12;97613.70;1783242;80;21305;-63
2021/04/06 01:26:11;;;;;;;23.47;13.95;;;;;;;3.56;66.16;97618.34;1794934;80;21280;-63
2021/04/06 01:28:41;;;;;;;27.20;14.73;;;;;;;3.56;66.33;97620.50;1794569;79;21118;-63
2021/04/06 01:31:11;;;;;;;26.35;14.85;;;;;;;3.54;66.25;97620.89;1794608;80;21149;-63
2021/04/06 01:33:42;;;;;;;26.23;15.32;;;;;;;3.51;66.39;97617.41;1794624;79;21143;-65
2021/04/06 01:36:10;;;;;;;25.60;16.02;;;;;;;3.50;66.52;97615.28;1794825;80;21131;-63
2021/04/06 01:38:40;;;;;;;23.98;15.08;;;;;;;3.47;66.80;97605.89;1794675;80;21170;-60
2021/04/06 01:41:10;;;;;;;29.20;15.48;;;;;;;3.44;66.79;97599.47;1794719;78;21173;-62
2021/04/06 01:43:47;;;;;;;28.32;15.80;;;;;;;3.44;66.82;97606.27;1794838;80;21284;-62
2021/04/06 01:46:16;;;;;;;23.85;14.85;;;;;;;3.42;66.91;97618.13;1794290;79;21264;-62
2021/04/06 01:48:43;;;;;;;25.20;14.95;;;;;;;3.43;66.98;97622.37;1777675;80;21161;-64
2021/04/06 01:51:14;;;;;;;24.25;14.78;;;;;;;3.43;66.96;97621.11;1794846;80;21571;-62
2021/04/06 01:53:43;;;;;;;22.45;13.72;;;;;;;3.43;67.12;97621.11;1795032;80;21115;-61
2021/04/06 01:56:15;;;;;;;23.57;13.45;;;;;;;3.39;67.21;97614.25;1794961;80;21126;-60
2021/04/06 01:58:50;;;;;;;24.75;14.45;;;;;;;3.37;67.37;97614.64;1794936;80;21638;-64
2021/04/06 02:01:24;;;;;;;27.98;14.85;;;;;;;3.36;67.53;97609.96;1794793;80;21127;-61
2021/04/06 02:04:01;;;;;;;27.15;14.98;;;;;;;3.32;67.80;97611.15;1794576;80;21328;-62
2021/04/06 02:06:30;;;;;;;24.23;14.40;;;;;;;3.24;68.03;97609.31;1794456;80;21293;-63
2021/04/06 02:08:59;;;;;;;26.00;14.25;;;;;;;3.22;68.21;97613.52;1795148;80;21155;-61
2021/04/06 02:11:32;;;;;;;25.55;14.50;;;;;;;3.22;68.22;97595.67;1777495;80;21288;-63
2021/04/06 02:14:10;;;;;;;24.10;14.45;;;;;;;3.24;68.34;97608.47;1794792;80;21154;-63
2021/04/06 02:16:59;;;;;;;22.20;13.95;;;;;;;3.25;68.24;97611.02;1794692;80;21114;-63
2021/04/06 02:19:37;;;;;;;23.25;14.58;;;;;;;3.29;68.20;97598.35;1795031;80;21134;-64
2021/04/06 02:22:20;;;;;;;24.55;14.58;;;;;;;3.30;68.17;97606.43;1795002;80;21154;-63
2021/04/06 02:24:52;;;;;;;26.70;15.45;;;;;;;3.29;68.14;97591.55;1794753;79;21206;-63
2021/04/06 02:27:32;;;;;;;22.07;13.95;;;;;;;3.32;68.04;97593.30;1795106;80;21546;-62
2021/04/06 02:30:05;;;;;;;25.85;14.98;;;;;;;3.35;67.93;97594.63;1794963;80;21138;-62
2021/04/06 02:32:35;;;;;;;20.97;12.95;;;;;;;3.36;67.83;97595.05;1794668;79;21114;-61
2021/04/06 02:35:11;;;;;;;27.60;14.25;;;;;;;3.39;67.79;97590.03;1794945;79;21177;-64
2021/04/06 02:37:43;;;;;;;26.20;14.95;;;;;;;3.41;67.74;97589.61;1794836;78;21142;-63
2021/04/06 02:40:16;;;;;;;22.80;13.58;;;;;;;3.40;67.70;97595.13;1795139;80;21190;-63
2021/04/06 02:42:47;;;;;;;27.10;15.75;;;;;;;3.41;67.72;97603.64;1794713;80;21134;-64
2021/04/06 02:45:29;;;;;;;25.40;13.75;;;;;;;3.43;67.70;97595.60;1795130;80;21676;-61
2021/04/06 02:48:10;;;;;;;26.30;14.70;;;;;;;3.44;67.57;97603.72;1795019;78;21308;-64
2021/04/06 02:50:39;;;;;;;25.72;14.15;;;;;;;3.46;67.50;97595.26;1794735;80;21213;-63
2021/04/06 02:53:10;;;;;;;27.37;15.85;;;;;;;3.48;67.47;97602.49;1794716;80;21394;-63
2021/04/06 02:55:39;;;;;;;27.37;14.00;;;;;;;3.49;67.45;97607.20;1794850;79;21241;-64
2021/04/06 02:58:15;;;;;;;27.65;13.00;;;;;;;3.50;67.37;97599.98;1795003;78;21569;-63
2021/04/06 03:00:43;;;;;;;22.85;13.83;;;;;;;3.51;67.27;97599.17;1794770;80;21173;-63
2021/04/06 03:03:24;;;;;;;25.92;13.83;;;;;;;3.51;67.33;97586.80;1794647;79;21304;-62
2021/04/06 03:06:12;;;;;;;25.08;14.93;;;;;;;3.49;67.29;97586.80;1794723;79;21303;-62
2021/04/06 03:08:42;;;;;;;22.80;14.20;;;;;;;3.54;67.19;97597.94;1794742;80;21154;-61
2021/04/06 03:11:12;;;;;;;26.80;13.85;;;;;;;3.56;67.06;97592.45;1794693;79;21338;-63
2021/04/06 03:13:43;;;;;;;25.17;14.47;;;;;;;3.59;66.96;97596.32;1794860;78;21130;-63
2021/04/06 03:16:12;;;;;;;29.02;14.07;;;;;;;3.60;66.82;97590.38;1794693;80;21130;-63
2021/04/06 03:18:42;;;;;;;28.07;14.68;;;;;;;3.61;66.78;97607.41;1794667;80;21102;-63
2021/04/06 03:21:12;;;;;;;24.50;14.50;;;;;;;3.62;66.75;97601.47;1794701;80;21161;-63
2021/04/06 03:23:41;;;;;;;27.25;16.23;;;;;;;3.60;66.81;97601.84;1794143;80;21150;-62
2021/04/06 03:26:10;;;;;;;23.27;14.33;;;;;;;3.59;66.89;97618.00;1780858;80;21115;-63
2021/04/06 03:28:39;;;;;;;23.95;14.10;;;;;;;3.60;66.83;97613.33;1780949;79;21139;-62
2021/04/06 03:31:16;;;;;;;26.00;14.38;;;;;;;3.60;66.84;97613.33;1785430;79;21103;-63
2021/04/06 03:33:47;;;;;;;28.20;14.35;;;;;;;3.60;66.81;97605.67;1796698;79;21151;-63
2021/04/06 03:36:32;;;;;;;21.77;14.60;;;;;;;3.60;66.82;97613.33;1795277;79;21119;-65
2021/04/06 03:39:08;;;;;;;25.05;14.75;;;;;;;3.61;66.78;97620.17;1737799;81;21173;-63
2021/04/06 03:41:36;;;;;;;21.35;12.85;;;;;;;3.62;66.82;97613.37;1743189;82;21139;-62
2021/04/06 03:44:08;;;;;;;22.87;13.43;;;;;;;3.65;66.66;97601.51;1818733;79;21144;-64
2021/04/06 03:46:40;;;;;;;22.85;14.00;;;;;;;3.70;66.50;97606.69;1813260;77;21565;-64
2021/04/06 03:49:17;;;;;;;;;;;;;;;3.70;66.45;97596.06;1796698;79;21107;-64
2021/04/06 03:51:55;;;;;;;28.95;14.00;;;;;;;3.68;66.48;97601.97;1796713;79;20221;-61
2021/04/06 03:54:46;;;;;;;25.05;14.83;;;;;;;3.77;66.87;97592.34;1794125;79;21698;-62
2021/04/06 03:57:23;;;;;;;;;;;;;;;4.07;66.58;97610.67;1784822;79;21435;-61
2021/04/06 03:59:51;;;;;;;25.90;14.23;;;;;;;4.35;66.12;97611.04;1798149;79;20132;-60
2021/04/06 04:02:18;;;;;;;23.18;13.65;;;;;;;4.57;65.31;97619.44;1796835;79;21135;-58
2021/04/06 04:04:46;;;;;;;27.67;14.30;;;;;;;4.69;63.99;97611.50;1808251;79;21204;-63
2021/04/06 04:07:15;;;;;;;23.57;15.13;;;;;;;4.69;63.58;97628.11;1812783;78;21273;-64
2021/04/06 04:09:43;;;;;;;24.47;14.03;;;;;;;4.62;63.37;97619.50;1812945;79;21305;-63
2021/04/06 04:12:13;;;;;;;24.20;14.90;;;;;;;4.50;63.38;97611.28;1812693;78;21151;-63
2021/04/06 04:14:41;;;;;;;29.35;15.88;;;;;;;4.41;63.64;97629.02;1812783;79;21179;-64
2021/04/06 04:17:10;;;;;;;27.62;16.32;;;;;;;4.35;63.84;97627.64;1812942;78;21146;-64
2021/04/06 04:19:38;;;;;;;27.85;15.95;;;;;;;4.35;63.94;97628.91;1812789;78;21293;-63
2021/04/06 04:22:06;;;;;;;27.48;15.90;;;;;;;4.32;63.99;97637.81;1812841;78;21147;-62
2021/04/06 04:24:34;;;;;;;26.50;15.65;;;;;;;4.30;64.11;97633.10;1812939;78;21289;-64
2021/04/06 04:27:03;;;;;;;27.15;15.45;;;;;;;4.31;64.09;97627.18;1812790;78;21289;-63
2021/04/06 04:29:31;;;;;;;28.38;15.40;;;;;;;4.30;64.18;97628.88;1802557;78;21119;-63
2021/04/06 04:31:59;;;;;;;27.77;14.83;;;;;;;4.29;64.00;97619.91;1797228;79;21139;-64
2021/04/06 04:34:27;;;;;;;26.10;14.15;;;;;;;4.30;64.14;97628.00;1798082;79;21174;-64
2021/04/06 04:36:55;;;;;;;28.40;16.30;;;;;;;4.34;64.12;97633.59;1784879;78;21256;-65
2021/04/06 04:39:23;;;;;;;33.00;15.00;;;;;;;4.40;63.93;97629.87;1795544;79;21542;-64
2021/04/06 04:41:52;;;;;;;26.30;14.73;;;;;;;4.47;63.74;97631.64;1796759;79;21300;-64
2021/04/06 04:44:20;;;;;;;26.97;15.30;;;;;;;4.49;63.64;97631.25;1790874;79;21158;-62
2021/04/06 04:46:49;;;;;;;26.65;15.30;;;;;;;4.54;63.57;97630.89;1793766;78;21122;-63
2021/04/06 04:49:17;;;;;;;25.72;14.53;;;;;;;4.62;63.41;97639.09;1780959;79;21152;-63
2021/04/06 04:51:45;;;;;;;26.60;15.88;;;;;;;4.64;63.22;97635.71;1788041;79;21099;-63
2021/04/06 04:54:13;;;;;;;28.02;16.20;;;;;;;4.62;63.23;97633.98;1782992;79;21139;-62
2021/04/06 04:56:41;;;;;;;35.08;17.95;;;;;;;4.60;63.21;97631.81;1785985;79;21292;-62
2021/04/06 04:59:09;;;;;;;28.20;16.87;;;;;;;4.63;63.09;97634.01;1787473;79;21135;-65
2021/04/06 05:01:37;;;;;;;31.10;15.95;;;;;;;4.67;63.03;97632.34;1734090;80;21212;-65
2021/04/06 05:04:07;;;;;;;31.40;16.20;;;;;;;4.74;62.89;97641.38;1791765;79;21313;-64
2021/04/06 05:06:35;;;;;;;38.40;16.00;;;;;;;4.87;62.66;97644.09;1795722;79;21122;-64
2021/04/06 05:09:05;;;;;;;25.50;16.60;;;;;;;5.05;62.30;97645.58;1780976;79;21152;-64
2021/04/06 05:11:35;;;;;;;29.63;16.20;;;;;;;5.24;61.82;97647.94;1785395;79;21719;-64
2021/04/06 05:14:04;;;;;;;37.78;16.05;;;;;;;5.46;61.21;97648.14;1813021;79;21143;-64
2021/04/06 05:16:33;;;;;;;34.30;16.52;;;;;;;5.68;60.61;97648.79;1813033;79;21138;-61
2021/04/06 05:19:01;;;;;;;24.45;15.50;;;;;;;5.94;59.88;97632.83;1813014;78;21099;-64
2021/04/06 05:21:29;;;;;;;23.42;14.78;;;;;;;6.18;58.67;97646.22;1812674;79;21135;-63
2021/04/06 05:23:57;;;;;;;43.68;18.07;;;;;;;6.45;57.95;97639.14;1805057;78;21138;-62
2021/04/06 05:26:26;;;;;;;34.50;16.60;;;;;;;6.89;57.44;97639.78;1785498;78;21379;-63
2021/04/06 05:28:53;;;;;;;32.03;16.82;;;;;;;7.36;55.93;97632.68;1780948;80;21281;-63
2021/04/06 05:31:21;;;;;;;28.75;16.93;;;;;;;7.96;54.23;97631.04;1781048;80;21272;-61
2021/04/06 05:33:53;;;;;;;29.45;16.73;;;;;;;8.47;53.18;97635.72;1770146;80;21288;-62
2021/04/06 05:36:21;;;;;;;28.67;16.87;;;;;;;9.13;51.59;97641.93;1797371;78;21281;-64
2021/04/06 05:38:49;;;;;;;30.65;17.17;;;;;;;9.78;49.80;97641.09;1781202;79;21171;-64
2021/04/06 05:41:18;;;;;;;31.73;17.15;;;;;;;10.31;48.14;97646.72;1781075;79;21127;-64
2021/04/06 05:43:47;;;;;;;32.80;16.87;;;;;;;10.74;46.93;97642.42;1780737;80;21150;-64
2021/04/06 05:46:16;;;;;;;26.65;15.43;;;;;;;11.24;45.56;97642.67;1780921;79;21123;-63
2021/04/06 05:48:45;;;;;;;25.43;15.98;;;;;;;11.67;43.78;97640.34;1780890;80;21127;-64
2021/04/06 05:51:16;;;;;;;28.30;15.00;;;;;;;11.98;43.24;97637.77;1780938;80;21182;-63
2021/04/06 05:53:45;;;;;;;23.92;14.18;;;;;;;12.66;41.61;97638.30;1781068;80;21293;-64
2021/04/06 05:56:13;;;;;;;24.72;14.85;;;;;;;13.32;40.78;97647.83;1784628;79;21170;-63
2021/04/06 05:58:41;;;;;;;26.07;14.05;;;;;;;14.04;39.51;97645.77;1790270;77;21175;-64
2021/04/06 06:01:09;;;;;;;21.75;13.98;;;;;;;14.51;38.63;97653.24;1798669;77;21518;-64
2021/04/06 06:03:39;;;;;;;21.82;13.75;;;;;;;14.88;37.44;97654.45;1792239;79;21570;-67
2021/04/06 06:06:08;;;;;;;22.85;14.10;;;;;;;15.29;36.91;97664.55;1788340;79;21277;-63
2021/04/06 06:08:39;;;;;;;23.55;13.60;;;;;;;15.59;36.31;97661.50;1788142;79;21158;-66
2021/04/06 06:11:07;;;;;;;20.65;13.55;;;;;;;15.49;35.81;97668.72;1779261;80;21154;-65
2021/04/06 06:13:36;;;;;;;17.57;12.63;;;;;;;15.34;36.04;97662.67;1793688;77;21134;-60
2021/04/06 06:16:21;;;;;;;25.50;15.25;;;;;;;15.17;36.13;97670.97;1789895;78;21151;-63
2021/04/06 06:19:03;;;;;;;21.87;13.40;;;;;;;15.24;36.14;97667.31;1794151;79;21284;-65
2021/04/06 06:21:51;;;;;;;24.67;14.53;;;;;;;15.44;35.15;97677.56;1796076;79;21182;-65
2021/04/06 06:24:38;;;;;;;25.20;17.50;;;;;;;15.08;35.76;97670.77;1808985;79;21158;-63
2021/04/06 06:27:24;;;;;;;24.15;15.72;;;;;;;14.82;36.18;97675.84;1812547;77;21134;-65
2021/04/06 06:29:53;;;;;;;23.15;14.60;;;;;;;14.65;36.30;97685.36;1796551;78;21317;-65
2021/04/06 06:32:23;;;;;;;29.50;16.37;;;;;;;14.38;36.56;97690.34;1792801;79;21087;-63
2021/04/06 06:34:51;;;;;;;23.75;15.00;;;;;;;14.16;37.04;97686.56;1796578;79;21680;-64
2021/04/06 06:37:28;;;;;;;19.98;13.70;;;;;;;13.97;37.23;97685.70;1792740;78;21161;-65
2021/04/06 06:40:05;;;;;;;25.45;15.03;;;;;;;13.80;37.25;97682.64;1796912;77;21558;-63
2021/04/06 06:42:39;;;;;;;25.23;13.33;;;;;;;13.53;37.74;97685.38;1782541;79;21731;-68
2021/04/06 06:45:23;;;;;;;20.70;12.07;;;;;;;13.48;37.91;97689.81;1780747;79;21850;-65
2021/04/06 06:47:55;;;;;;;17.17;11.88;;;;;;;13.41;37.87;97691.70;1780802;80;21284;-66
2021/04/06 06:50:27;;;;;;;19.80;12.40;;;;;;;13.33;38.16;97694.45;1780832;80;21174;-66
2021/04/06 06:52:57;;;;;;;28.05;12.65;;;;;;;13.35;38.24;97691.80;1781283;80;21290;-65
2021/04/06 06:55:26;;;;;;;17.65;10.43;;;;;;;13.37;38.27;97695.22;1780790;80;21123;-65
2021/04/06 06:58:02;;;;;;;18.57;11.03;;;;;;;13.45;38.03;97697.20;1794309;79;21527;-67
2021/04/06 07:00:30;;;;;;;22.80;12.45;;;;;;;13.56;37.83;97691.37;1779743;80;21348;-65
2021/04/06 07:02:58;;;;;;;17.35;12.43;;;;;;;13.68;37.54;97694.13;1779614;80;21201;-65
2021/04/06 07:05:28;;;;;;;21.17;13.43;;;;;;;13.81;37.53;97690.81;1780945;80;21142;-64
2021/04/06 07:08:08;;;;;;;27.00;14.87;;;;;;;14.02;37.09;97690.34;1780790;80;21114;-65
2021/04/06 07:10:43;;;;;;;18.80;12.55;;;;;;;14.22;36.81;97691.59;1780849;79;21175;-64
2021/04/06 07:13:20;;;;;;;19.55;12.18;;;;;;;14.36;36.36;97684.78;1780846;80;21735;-64
2021/04/06 07:15:50;;;;;;;21.73;10.65;;;;;;;14.47;35.94;97699.17;1780903;79;21158;-63
2021/04/06 07:18:23;;;;;;;17.40;10.38;;;;;;;14.50;35.56;97703.02;1780877;80;21324;-65
2021/04/06 07:20:58;;;;;;;16.52;10.38;;;;;;;14.61;35.47;97711.02;1781089;80;21609;-65
2021/04/06 07:24:04;;;;;;;22.80;12.15;;;;;;;14.80;35.22;97707.48;1781105;80;21359;-66
2021/04/06 07:26:32;;;;;;;18.65;11.12;;;;;;;15.19;34.65;97705.12;1790313;80;21176;-63
2021/04/06 07:29:02;;;;;;;19.87;10.32;;;;;;;15.65;34.14;97705.55;1794701;78;21300;-65
2021/04/06 07:31:30;;;;;;;21.33;10.18;;;;;;;15.80;33.78;97706.42;1799116;78;21085;-65
2021/04/06 07:33:59;;;;;;;16.77;10.80;;;;;;;15.88;33.68;97711.84;1821770;78;21098;-66
2021/04/06 07:36:28;;;;;;;23.05;11.08;;;;;;;15.87;33.75;97704.92;1815384;78;21118;-66
2021/04/06 07:39:00;;;;;;;18.62;10.60;;;;;;;15.92;33.56;97710.84;1794676;80;21154;-66
2021/04/06 07:41:30;;;;;;;;;;;;;;;16.51;32.74;97709.38;1797274;78;21155;-66
2021/04/06 07:44:01;;;;;;;14.40;9.80;;;;;;;17.33;31.86;97717.43;1794625;78;20141;-65
2021/04/06 07:46:39;;;;;;;19.27;10.48;;;;;;;17.88;30.50;97704.55;1799518;78;21118;-66
2021/04/06 07:49:14;;;;;;;20.25;11.38;;;;;;;18.36;30.55;97710.05;1811400;78;21263;-66
2021/04/06 07:51:49;;;;;;;21.17;11.53;;;;;;;19.18;29.61;97707.49;1748059;82;21302;-65
2021/04/06 07:54:23;;;;;;;19.52;10.03;;;;;;;20.53;27.56;97711.27;1760446;80;21303;-66
2021/04/06 07:57:03;;;;;;;14.70;10.03;;;;;;;20.53;27.56;97711.27;1761792;80;21193;-66
2021/04/06 07:59:43;;;;;;;18.85;10.13;;;;;;;21.15;26.69;97713.43;1756481;80;21221;-65
2021/04/06 08:02:17;;;;;;;14.78;9.65;;;;;;;21.69;26.32;97706.20;1759478;80;21197;-64
2021/04/06 08:04:53;;;;;;;14.83;8.15;;;;;;;22.20;25.11;97719.20;1757237;80;21139;-69
2021/04/06 08:07:31;;;;;;;11.03;8.68;;;;;;;22.61;24.21;97721.27;1741406;80;21173;-65
2021/04/06 08:10:11;;;;;;;12.73;8.45;;;;;;;23.03;23.99;97732.41;1740920;81;21146;-65
2021/04/06 08:12:40;;;;;;;14.15;7.95;;;;;;;23.67;23.21;97732.08;1752066;82;21125;-64
2021/04/06 08:15:19;;;;;;;14.23;8.33;;;;;;;23.96;23.08;97733.75;1743302;81;21304;-64
2021/04/06 08:17:52;;;;;;;13.68;7.80;;;;;;;23.94;22.92;97733.02;1754892;82;21223;-66
2021/04/06 08:20:35;;;;;;;10.58;7.45;;;;;;;23.99;22.98;97730.07;1743187;81;21175;-64
2021/04/06 08:23:17;;;;;;;11.28;7.40;;;;;;;24.22;22.55;97735.19;1746934;81;21162;-66
2021/04/06 08:25:50;;;;;;;11.85;8.08;;;;;;;24.66;22.25;97728.86;1749741;81;21099;-64
2021/04/06 08:28:37;;;;;;;12.50;7.95;;;;;;;25.08;21.93;97728.23;1743798;80;21193;-65
2021/04/06 08:31:25;;;;;;;12.78;7.60;;;;;;;25.30;21.18;97729.82;1805230;79;21271;-65
2021/04/06 08:33:54;;;;;;;10.65;7.00;;;;;;;25.34;21.03;97727.34;1806672;79;21118;-63
2021/04/06 08:36:28;;;;;;;11.35;7.50;;;;;;;25.71;20.91;97726.09;1804781;79;21146;-64
2021/04/06 08:38:58;;;;;;;12.25;7.62;;;;;;;25.83;20.26;97732.31;1803224;78;21063;-64
2021/04/06 08:41:31;;;;;;;10.98;6.95;;;;;;;25.57;20.70;97730.20;1805591;79;21166;-64
2021/04/06 08:44:04;;;;;;;13.70;7.85;;;;;;;25.34;20.53;97733.95;1788948;80;21142;-64
2021/04/06 08:46:48;;;;;;;8.93;5.72;;;;;;;25.11;20.86;97726.25;1788392;79;21110;-66
2021/04/06 08:49:23;;;;;;;;;;;;;;;25.09;20.75;97729.95;1812479;79;21107;-65
2021/04/06 08:52:01;;;;;;;11.65;7.37;;;;;;;24.72;21.01;97721.84;1806534;79;20291;-64
2021/04/06 08:54:37;;;;;;;10.78;7.03;;;;;;;24.62;21.18;97716.81;1806513;79;21177;-65
2021/04/06 08:57:06;;;;;;;12.88;7.78;;;;;;;24.35;21.01;97705.79;1804416;77;21170;-66
2021/04/06 08:59:42;;;;;;;10.90;7.17;;;;;;;23.45;21.75;97711.00;1803308;79;21153;-66
2021/04/06 09:02:15;;;;;;;11.08;7.97;;;;;;;23.00;22.05;97701.02;1810643;79;21288;-65
2021/04/06 09:04:50;;;;;;;14.78;7.42;;;;;;;22.41;22.59;97710.56;1805623;79;21122;-66
2021/04/06 09:07:27;;;;;;;12.78;7.60;;;;;;;21.92;23.19;97703.62;1821219;79;21146;-66
2021/04/06 09:10:11;;;;;;;12.75;8.28;;;;;;;21.68;23.85;97707.15;1821179;77;21122;-66
2021/04/06 09:12:43;;;;;;;10.20;7.72;;;;;;;21.50;23.89;97704.17;1817948;79;21127;-65
2021/04/06 09:15:15;;;;;;;12.98;7.22;;;;;;;20.91;24.23;97693.23;1811068;77;21129;-66
2021/04/06 09:17:43;;;;;;;15.50;8.00;;;;;;;19.94;24.98;97685.70;1810195;77;21122;-63
2021/04/06 09:20:16;;;;;;;13.05;8.25;;;;;;;19.32;25.68;97700.36;1806573;77;21265;-66
2021/04/06 09:22:50;;;;;;;11.05;7.40;;;;;;;19.07;26.23;97700.97;1745582;81;21156;-65
2021/04/06 09:25:33;;;;;;;14.10;8.80;;;;;;;19.05;26.41;97692.80;1738204;81;21194;-66
2021/04/06 09:28:02;;;;;;;14.58;8.18;;;;;;;18.84;26.50;97695.42;1732158;82;21215;-65
2021/04/06 09:30:43;;;;;;;14.55;8.50;;;;;;;18.76;26.43;97690.99;1733627;81;21324;-65
2021/04/06 09:33:14;;;;;;;14.53;8.23;;;;;;;18.12;27.66;97678.80;1732919;81;21586;-63
2021/04/06 09:35:49;;;;;;;14.18;7.62;;;;;;;18.12;27.66;97678.80;1743249;80;21585;-64
2021/04/06 09:38:21;;;;;;;15.80;8.48;;;;;;;17.85;27.77;97683.34;1737083;81;21146;-70
2021/04/06 09:40:49;;;;;;;11.93;6.80;;;;;;;17.78;27.93;97677.49;1733360;83;21162;-69
2021/04/06 09:43:18;;;;;;;11.48;7.53;;;;;;;17.74;27.88;97688.10;1733322;83;21171;-66
2021/04/06 09:45:51;;;;;;;12.43;6.17;;;;;;;17.62;27.86;97682.04;1733319;82;21325;-64
2021/04/06 09:48:20;;;;;;;14.78;7.12;;;;;;;17.55;28.54;97693.15;1743562;81;21184;-68
2021/04/06 09:51:04;;;;;;;13.75;7.17;;;;;;;17.54;28.42;97697.52;1743300;81;21153;-65
2021/04/06 09:53:37;;;;;;;15.03;7.47;;;;;;;17.52;28.41;97696.72;1743278;81;21310;-64
2021/04/06 09:56:07;;;;;;;12.05;6.05;;;;;;;17.35;28.46;97695.19;1789041;79;21154;-67
2021/04/06 09:58:36;;;;;;;12.55;7.87;;;;;;;17.06;28.49;97686.67;1798796;79;21257;-66
2021/04/06 10:01:20;;;;;;;16.62;10.48;;;;;;;16.90;28.92;97681.62;1821433;77;21146;-65
2021/04/06 10:03:54;;;;;;;12.07;7.92;;;;;;;16.86;29.13;97676.95;1806543;78;21127;-66
2021/04/06 10:06:38;;;;;;;13.25;7.28;;;;;;;16.74;29.36;97676.48;1811252;79;21119;-66
2021/04/06 10:09:23;;;;;;;13.25;8.38;;;;;;;16.61;29.63;97672.16;1806762;79;21271;-65
2021/04/06 10:11:53;;;;;;;10.43;6.60;;;;;;;16.53;29.87;97669.81;1804062;79;21083;-66
2021/04/06 10:14:22;;;;;;;13.90;6.80;;;;;;;16.47;29.96;97679.14;1801324;79;21150;-65
2021/04/06 10:17:02;;;;;;;12.73;7.53;;;;;;;16.45;30.15;97673.12;1780455;79;21264;-66
2021/04/06 10:19:33;;;;;;;10.78;6.50;;;;;;;16.39;30.18;97666.84;1804309;79;21106;-66
2021/04/06 10:22:06;;;;;;;17.45;7.15;;;;;;;16.19;30.42;97663.13;1795707;79;21280;-67
2021/04/06 10:24:40;;;;;;;12.28;7.33;;;;;;;16.02;30.86;97657.61;1819808;79;21661;-65
2021/04/06 10:27:19;;;;;;;14.68;7.70;;;;;;;15.99;30.90;97655.11;1808745;78;21558;-66
2021/04/06 10:29:58;;;;;;;13.65;7.30;;;;;;;16.06;30.79;97653.56;1792342;79;21271;-67
2021/04/06 10:32:39;;;;;;;12.18;6.87;;;;;;;16.18;31.01;97651.45;1809478;77;21087;-68
2021/04/06 10:35:13;;;;;;;10.90;7.47;;;;;;;16.45;30.53;97648.39;1810074;77;21110;-67
2021/04/06 10:38:03;;;;;;;12.73;7.75;;;;;;;16.63;30.18;97655.57;1811286;77;21117;-67
2021/04/06 10:40:40;;;;;;;11.40;7.75;;;;;;;16.61;29.78;97652.20;1768370;80;21559;-65
2021/04/06 10:43:12;;;;;;;11.12;7.22;;;;;;;16.24;30.25;97649.51;1772161;80;21658;-66
2021/04/06 10:45:45;;;;;;;11.03;7.28;;;;;;;16.16;30.55;97655.88;1765658;80;21590;-67
2021/04/06 10:48:18;;;;;;;13.40;7.95;;;;;;;16.16;30.66;97652.82;1766016;80;21105;-65
2021/04/06 10:50:54;;;;;;;12.43;6.83;;;;;;;16.25;30.75;97653.80;1767176;80;21322;-66
2021/04/06 10:53:32;;;;;;;10.98;7.55;;;;;;;16.25;30.80;97655.10;1759639;80;21316;-65
2021/04/06 10:56:11;;;;;;;16.75;9.00;;;;;;;16.26;30.73;97652.92;1765621;80;21822;-65
2021/04/06 10:58:50;;;;;;;15.78;8.13;;;;;;;16.24;32.40;97649.51;1777249;80;21298;-65
2021/04/06 11:01:27;;;;;;;17.42;8.08;;;;;;;16.11;32.73;97648.22;1753880;81;21104;-65
2021/04/06 11:03:59;;;;;;;12.20;7.40;;;;;;;16.15;32.45;97640.69;1778636;80;21116;-65
2021/04/06 11:06:37;;;;;;;11.22;7.42;;;;;;;16.24;32.32;97640.86;1779428;80;21283;-65
2021/04/06 11:09:19;;;;;;;13.00;7.83;;;;;;;16.23;32.17;97636.11;1776540;80;21142;-64
2021/04/06 11:11:52;;;;;;;11.80;7.15;;;;;;;16.15;32.18;97637.24;1735511;81;21153;-65
2021/04/06 11:14:22;;;;;;;;;;;;;;;16.05;32.34;97641.89;1751759;81;21146;-66
2021/04/06 11:16:52;;;;;;;36.77;9.80;;;;;;;15.99;32.50;97634.30;1720246;82;20195;-73
2021/04/06 11:19:30;;;;;;;16.30;9.28;;;;;;;15.94;32.55;97634.89;1727015;82;21603;-74
2021/04/06 11:22:04;;;;;;;18.35;8.70;;;;;;;15.89;32.76;97632.89;1724334;82;21193;-72
2021/04/06 11:24:32;;;;;;;14.13;8.68;;;;;;;15.84;32.66;97633.88;1728601;83;21258;-69
2021/04/06 11:27:04;;;;;;;13.72;7.97;;;;;;;15.68;32.91;97637.83;1725932;82;21713;-68
2021/04/06 11:29:34;;;;;;;15.37;7.93;;;;;;;15.55;32.89;97635.21;1729231;82;21171;-68
2021/04/06 11:32:07;;;;;;;20.62;8.50;;;;;;;15.43;32.97;97635.57;1698229;84;21141;-68
2021/04/06 11:34:37;;;;;;;14.23;8.05;;;;;;;15.19;32.99;97618.52;1728358;82;21311;-68
2021/04/06 11:37:09;;;;;;;15.72;8.13;;;;;;;14.96;33.85;97633.02;1670182;85;21193;-68
2021/04/06 11:39:42;;;;;;;16.32;8.20;;;;;;;14.90;34.36;97629.27;1708849;83;21189;-66
2021/04/06 11:42:13;;;;;;;15.90;8.95;;;;;;;14.84;34.56;97632.50;1691773;85;21734;-67
2021/04/06 11:44:41;;;;;;;13.78;9.05;;;;;;;14.76;34.78;97624.92;1751847;81;21180;-66
2021/04/06 11:47:09;;;;;;;17.07;8.88;;;;;;;14.75;34.98;97627.94;1751877;81;21335;-68
2021/04/06 11:49:37;;;;;;;14.03;8.55;;;;;;;14.73;35.17;97624.98;1755716;80;21283;-67
2021/04/06 11:52:06;;;;;;;18.67;10.03;;;;;;;14.72;35.06;97623.29;1782886;79;21130;-66
2021/04/06 11:54:34;;;;;;;19.87;9.60;;;;;;;14.65;35.08;97621.74;1773373;79;21131;-66